createdAt,value
2022-12-08T00:00:20.089Z,1015.5
2022-12-08T00:05:20.090Z,1015.5
2022-12-08T00:10:47.646Z,1015.4
2022-12-08T00:15:20.092Z,1015.3
2022-12-08T00:20:20.084Z,1015.4
2022-12-08T00:25:20.107Z,1015.3
2022-12-08T00:30:20.093Z,1015.3
2022-12-08T00:35:20.091Z,1015.2
2022-12-08T00:40:20.094Z,1015.2
2022-12-08T00:45:20.095Z,1015.1
2022-12-08T00:50:20.099Z,1015.1
2022-12-08T00:55:20.092Z,1015.2
2022-12-08T01:00:20.091Z,1015
2022-12-08T01:05:20.098Z,1015.1
2022-12-08T01:10:20.089Z,1015
2022-12-08T01:15:20.101Z,1015
2022-12-08T01:20:20.094Z,1015
2022-12-08T01:25:20.090Z,1015
2022-12-08T01:30:20.094Z,1015
2022-12-08T01:35:20.090Z,1015
2022-12-08T01:40:20.083Z,1015
2022-12-08T01:45:20.093Z,1015
2022-12-08T01:50:20.086Z,1014.9
2022-12-08T01:55:20.094Z,1014.9
2022-12-08T02:00:20.086Z,1014.9
2022-12-08T02:05:20.094Z,1014.9
2022-12-08T02:10:20.097Z,1014.9
2022-12-08T02:15:20.103Z,1014.8
2022-12-08T02:20:20.100Z,1014.8
2022-12-08T02:25:20.103Z,1014.7
2022-12-08T02:30:20.099Z,1014.7
2022-12-08T02:35:20.092Z,1014.6
2022-12-08T02:40:20.097Z,1014.5
2022-12-08T02:45:20.092Z,1014.5
2022-12-08T02:50:20.087Z,1014.5
2022-12-08T02:55:20.096Z,1014.6
2022-12-08T03:00:20.093Z,1014.5
2022-12-08T03:05:20.107Z,1014.5
2022-12-08T03:10:20.088Z,1014.5
2022-12-08T03:15:20.091Z,1014.4
2022-12-08T03:20:20.086Z,1014.4
2022-12-08T03:25:20.093Z,1014.4
2022-12-08T03:30:20.084Z,1014.4
2022-12-08T03:35:20.093Z,1014.3
2022-12-08T03:40:20.089Z,1014.2
2022-12-08T03:45:20.093Z,1014.2
2022-12-08T03:50:20.090Z,1014.1
2022-12-08T03:55:20.092Z,1014.1
2022-12-08T04:00:20.087Z,1014
2022-12-08T04:05:20.096Z,1013.9
2022-12-08T04:10:20.089Z,1013.9
2022-12-08T04:15:20.094Z,1014
2022-12-08T04:20:20.102Z,1013.9
2022-12-08T04:25:20.088Z,1013.9
2022-12-08T04:30:20.086Z,1013.9
2022-12-08T04:35:20.092Z,1013.9
2022-12-08T04:40:20.089Z,1013.8
2022-12-08T04:45:20.095Z,1013.8
2022-12-08T04:50:20.084Z,1013.7
2022-12-08T04:55:20.093Z,1013.7
2022-12-08T05:00:20.085Z,1013.7
2022-12-08T05:05:20.095Z,1013.6
2022-12-08T05:10:20.087Z,1013.7
2022-12-08T05:15:20.092Z,1013.7
2022-12-08T05:20:20.088Z,1013.7
2022-12-08T05:25:20.094Z,1013.7
2022-12-08T05:30:20.088Z,1013.7
2022-12-08T05:35:20.105Z,1013.7
2022-12-08T05:40:20.088Z,1013.7
2022-12-08T05:45:20.107Z,1013.6
2022-12-08T05:50:20.096Z,1013.6
2022-12-08T05:55:20.095Z,1013.6
2022-12-08T06:00:20.101Z,1013.6
2022-12-08T06:05:20.100Z,1013.5
2022-12-08T06:10:20.089Z,1013.4
2022-12-08T06:15:20.097Z,1013.4
2022-12-08T06:20:20.089Z,1013.4
2022-12-08T06:25:20.100Z,1013.4
2022-12-08T06:30:20.099Z,1013.4
2022-12-08T06:35:20.096Z,1013.5
2022-12-08T06:40:20.109Z,1013.5
2022-12-08T06:45:20.097Z,1013.4
2022-12-08T06:50:20.091Z,1013.4
2022-12-08T06:55:42.320Z,1013.5
2022-12-08T07:00:20.093Z,1013.5
2022-12-08T07:05:20.090Z,1013.4
2022-12-08T07:10:20.085Z,1013.5
2022-12-08T07:15:20.096Z,1013.4
2022-12-08T07:20:20.091Z,1013.4
2022-12-08T07:25:20.095Z,1013.4
2022-12-08T07:30:20.093Z,1013.5
2022-12-08T07:35:20.101Z,1013.5
2022-12-08T07:40:20.090Z,1013.4
2022-12-08T07:45:20.098Z,1013.5
2022-12-08T07:50:20.089Z,1013.5
2022-12-08T07:55:20.092Z,1013.6
2022-12-08T08:00:20.090Z,1013.5
2022-12-08T08:05:20.099Z,1013.5
2022-12-08T08:10:20.091Z,1013.5
2022-12-08T08:15:20.101Z,1013.5
2022-12-08T08:20:20.089Z,1013.5
2022-12-08T08:25:20.118Z,1013.5
2022-12-08T08:30:21.088Z,1013.4
2022-12-08T08:35:20.087Z,1013.5
2022-12-08T08:40:20.096Z,1013.5
2022-12-08T08:45:20.102Z,1013.5
2022-12-08T08:50:20.090Z,1013.5
2022-12-08T08:55:20.099Z,1013.5
2022-12-08T09:00:20.085Z,1013.5
2022-12-08T09:05:20.093Z,1013.5
2022-12-08T09:10:20.099Z,1013.5
2022-12-08T09:15:20.093Z,1013.5
2022-12-08T09:20:20.091Z,1013.5
2022-12-08T09:25:20.093Z,1013.5
2022-12-08T09:30:20.095Z,1013.5
2022-12-08T09:35:20.106Z,1013.5
2022-12-08T09:40:20.098Z,1013.6
2022-12-08T09:45:20.113Z,1013.5
2022-12-08T09:50:20.092Z,1013.5
2022-12-08T09:55:20.097Z,1013.5
2022-12-08T10:00:20.114Z,1013.4
2022-12-08T10:05:20.184Z,1013.4
2022-12-08T10:10:20.188Z,1013.2
2022-12-08T10:15:20.091Z,1013.1
2022-12-08T10:20:20.233Z,1013.1
2022-12-08T10:25:20.091Z,1013.1
2022-12-08T10:30:20.089Z,1013.1
2022-12-08T10:35:20.099Z,1013
2022-12-08T10:40:20.089Z,1012.9
2022-12-08T10:45:20.098Z,1012.9
2022-12-08T10:50:20.118Z,1012.8
2022-12-08T10:55:20.104Z,1012.7
2022-12-08T11:00:20.176Z,1012.6
2022-12-08T11:05:20.091Z,1012.7
2022-12-08T11:10:20.090Z,1012.6
2022-12-08T11:15:20.093Z,1012.6
2022-12-08T11:20:20.087Z,1012.5
2022-12-08T11:25:20.091Z,1012.5
2022-12-08T11:30:20.254Z,1012.4
2022-12-08T11:35:20.089Z,1012.3
2022-12-08T11:40:20.093Z,1012.2
2022-12-08T11:45:20.096Z,1012.2
2022-12-08T11:50:20.100Z,1012.3
2022-12-08T11:55:20.095Z,1012.1
2022-12-08T12:00:20.092Z,1012.1
2022-12-08T12:05:27.981Z,1012.1
2022-12-08T12:10:20.093Z,1012.1
2022-12-08T12:15:20.107Z,1012.1
2022-12-08T12:20:20.087Z,1011.9
2022-12-08T12:25:20.097Z,1012
2022-12-08T12:30:20.088Z,1011.9
2022-12-08T12:35:23.997Z,1011.8
2022-12-08T12:40:20.084Z,1011.8
2022-12-08T12:45:20.088Z,1011.8
2022-12-08T12:50:20.108Z,1011.8
2022-12-08T12:55:20.102Z,1011.8
2022-12-08T13:00:20.087Z,1011.8
2022-12-08T13:05:20.096Z,1011.8
2022-12-08T13:10:20.093Z,1011.7
2022-12-08T13:15:20.092Z,1011.8
2022-12-08T13:20:20.101Z,1011.8
2022-12-08T13:25:20.093Z,1011.8
2022-12-08T13:30:20.104Z,1011.7
2022-12-08T13:35:20.113Z,1011.6
2022-12-08T13:40:20.095Z,1011.5
2022-12-08T13:45:33.909Z,1011.5
2022-12-08T13:56:36.995Z,1011.5
2022-12-08T14:00:20.101Z,1011.5
2022-12-08T14:05:26.568Z,1011.5
2022-12-08T14:10:20.094Z,1011.6
2022-12-08T14:15:20.381Z,1011.6
2022-12-08T14:20:20.114Z,1011.6
2022-12-08T14:25:20.237Z,1011.6
2022-12-08T14:30:20.093Z,1011.5
2022-12-08T14:35:20.099Z,1011.6
2022-12-08T14:40:22.851Z,1011.5
2022-12-08T14:45:20.101Z,1011.5
2022-12-08T14:50:20.089Z,1011.6
2022-12-08T14:55:20.105Z,1011.6
2022-12-08T15:00:20.099Z,1011.6
2022-12-08T15:05:20.145Z,1011.6
2022-12-08T15:10:20.092Z,1011.7
2022-12-08T15:15:20.104Z,1011.6
2022-12-08T15:20:20.096Z,1011.6
2022-12-08T15:25:20.100Z,1011.7
2022-12-08T15:30:20.092Z,1011.6
2022-12-08T15:35:20.109Z,1011.6
2022-12-08T15:40:20.093Z,1011.6
2022-12-08T15:45:20.091Z,1011.6
2022-12-08T15:50:20.092Z,1011.7
2022-12-08T15:55:20.104Z,1011.6
2022-12-08T16:00:50.266Z,1011.7
2022-12-08T16:05:42.764Z,1011.5
2022-12-08T16:10:20.169Z,1011.6
2022-12-08T16:20:24.252Z,1011.5
2022-12-08T16:25:21.281Z,1011.7
2022-12-08T16:30:20.088Z,1011.7
2022-12-08T16:35:20.100Z,1011.7
2022-12-08T16:40:20.096Z,1011.7
2022-12-08T16:45:20.090Z,1011.7
2022-12-08T16:50:20.093Z,1011.7
2022-12-08T16:55:20.095Z,1011.7
2022-12-08T17:00:20.085Z,1011.8
2022-12-08T17:05:20.149Z,1011.7
2022-12-08T17:10:20.086Z,1011.7
2022-12-08T17:15:20.088Z,1011.7
2022-12-08T17:20:20.100Z,1011.6
2022-12-08T17:25:20.095Z,1011.7
2022-12-08T17:30:20.098Z,1011.6
2022-12-08T17:35:20.085Z,1011.5
2022-12-08T17:40:20.094Z,1011.4
2022-12-08T17:45:20.100Z,1011.5
2022-12-08T17:50:20.095Z,1011.4
2022-12-08T17:55:20.091Z,1011.5
2022-12-08T18:00:20.090Z,1011.5
2022-12-08T18:05:20.091Z,1011.6
2022-12-08T18:10:20.088Z,1011.5
2022-12-08T18:15:20.108Z,1011.5
2022-12-08T18:20:20.106Z,1011.6
2022-12-08T18:25:20.089Z,1011.6
2022-12-08T18:30:20.097Z,1011.6
2022-12-08T18:35:20.096Z,1011.6
2022-12-08T18:40:20.090Z,1011.5
2022-12-08T18:45:22.365Z,1011.5
2022-12-08T18:50:20.090Z,1011.6
2022-12-08T18:55:20.092Z,1011.5
2022-12-08T19:00:20.089Z,1011.4
2022-12-08T19:05:20.098Z,1011.4
2022-12-08T19:10:20.095Z,1011.5
2022-12-08T19:15:20.100Z,1011.4
2022-12-08T19:20:20.089Z,1011.5
2022-12-08T19:25:20.098Z,1011.4
2022-12-08T19:30:20.091Z,1011.5
2022-12-08T19:35:20.104Z,1011.5
2022-12-08T19:40:20.088Z,1011.5
2022-12-08T19:45:20.163Z,1011.5
2022-12-08T19:50:20.089Z,1011.5
2022-12-08T19:55:20.105Z,1011.4
2022-12-08T20:00:20.092Z,1011.3
2022-12-08T20:05:20.094Z,1011.3
2022-12-08T20:10:20.088Z,1011.4
2022-12-08T20:15:20.104Z,1011.4
2022-12-08T20:20:20.094Z,1011.4
2022-12-08T20:25:20.253Z,1011.5
2022-12-08T20:30:20.093Z,1011.5
2022-12-08T20:35:20.096Z,1011.5
2022-12-08T20:40:20.108Z,1011.5
2022-12-08T20:45:20.097Z,1011.6
2022-12-08T20:50:20.179Z,1011.7
2022-12-08T20:55:20.098Z,1011.6
2022-12-08T21:00:20.107Z,1011.7
2022-12-08T21:05:20.191Z,1011.6
2022-12-08T21:10:20.120Z,1011.6
2022-12-08T21:15:20.133Z,1011.6
2022-12-08T21:20:20.168Z,1011.5
2022-12-08T21:25:20.154Z,1011.5
2022-12-08T21:30:20.262Z,1011.4
2022-12-08T21:35:20.115Z,1011.5
2022-12-08T21:40:20.157Z,1011.4
2022-12-08T21:45:20.269Z,1011.5
2022-12-08T21:50:20.261Z,1011.5
2022-12-08T21:55:20.160Z,1011.4
2022-12-08T22:00:20.251Z,1011.5
2022-12-08T22:05:20.281Z,1011.5
2022-12-08T22:10:20.126Z,1011.6
2022-12-08T22:15:20.167Z,1011.5
2022-12-08T22:20:20.121Z,1011.6
2022-12-08T22:25:20.308Z,1011.5
2022-12-08T22:30:20.147Z,1011.5
2022-12-08T22:35:20.284Z,1011.5
2022-12-08T22:40:20.191Z,1011.5
2022-12-08T22:45:20.148Z,1011.5
2022-12-08T22:50:20.214Z,1011.4
2022-12-08T22:55:20.168Z,1011.4
2022-12-08T23:00:20.105Z,1011.4
2022-12-08T23:05:20.238Z,1011.4
2022-12-08T23:10:20.123Z,1011.4
2022-12-08T23:15:20.131Z,1011.4
2022-12-08T23:20:20.107Z,1011.3
2022-12-08T23:25:20.136Z,1011.3
2022-12-08T23:30:20.110Z,1011.3
2022-12-08T23:35:20.347Z,1011.2
2022-12-08T23:40:20.125Z,1011.2
2022-12-08T23:45:20.285Z,1011.2
2022-12-08T23:50:20.185Z,1011.2
2022-12-08T23:55:20.250Z,1011.2
